sensor_id;sensor_type;location;lat;lon;timestamp;pressure;altitude;pressure_sealevel;temperature;humidity
42591;BME280;28218;53.342;-6.216;2023-12-20T00:01:05;102055.25;;;7.98;100.00
42591;BME280;28218;53.342;-6.216;2023-12-20T00:03:39;102044.88;;;7.96;100.00
42591;BME280;28218;53.342;-6.216;2023-12-20T00:07:13;102036.66;;;8.01;100.00
42591;BME280;28218;53.342;-6.216;2023-12-20T00:09:49;102041.28;;;7.97;100.00
42591;BME280;28218;53.342;-6.216;2023-12-20T00:12:27;102032.69;;;7.95;100.00
42591;BME280;28218;53.342;-6.216;2023-12-20T00:15:02;102037.00;;;7.96;100.00
42591;BME280;28218;53.342;-6.216;2023-12-20T00:17:48;102043.19;;;7.95;100.00
42591;BME280;28218;53.342;-6.216;2023-12-20T00:20:28;102033.53;;;7.96;100.00
42591;BME280;28218;53.342;-6.216;2023-12-20T00:22:59;102044.75;;;7.98;100.00
42591;BME280;28218;53.342;-6.216;2023-12-20T00:29:35;102040.34;;;7.98;100.00
42591;BME280;28218;53.342;-6.216;2023-12-20T00:32:28;102039.28;;;8.01;100.00
42591;BME280;28218;53.342;-6.216;2023-12-20T00:38:36;102048.81;;;8.02;100.00
42591;BME280;28218;53.342;-6.216;2023-12-20T00:41:15;102047.03;;;8.02;100.00
42591;BME280;28218;53.342;-6.216;2023-12-20T00:44:22;102053.09;;;8.03;100.00
42591;BME280;28218;53.342;-6.216;2023-12-20T00:47:05;102047.84;;;8.03;100.00
42591;BME280;28218;53.342;-6.216;2023-12-20T00:49:59;102062.63;;;8.04;100.00
42591;BME280;28218;53.342;-6.216;2023-12-20T00:55:26;102052.03;;;8.05;100.00
42591;BME280;28218;53.342;-6.216;2023-12-20T00:59:25;102051.06;;;8.06;100.00
42591;BME280;28218;53.342;-6.216;2023-12-20T01:01:40;102036.28;;;8.05;100.00
42591;BME280;28218;53.342;-6.216;2023-12-20T01:04:48;102021.38;;;8.06;100.00
42591;BME280;28218;53.342;-6.216;2023-12-20T01:08:32;102026.97;;;8.12;100.00
42591;BME280;28218;53.342;-6.216;2023-12-20T01:11:07;102020.66;;;8.15;100.00
42591;BME280;28218;53.342;-6.216;2023-12-20T01:13:56;102020.38;;;8.18;100.00
42591;BME280;28218;53.342;-6.216;2023-12-20T01:17:20;102017.66;;;8.19;100.00
42591;BME280;28218;53.342;-6.216;2023-12-20T01:19:52;102014.69;;;8.24;100.00
42591;BME280;28218;53.342;-6.216;2023-12-20T01:22:37;102010.97;;;8.27;100.00
42591;BME280;28218;53.342;-6.216;2023-12-20T01:26:05;102003.91;;;8.27;100.00
42591;BME280;28218;53.342;-6.216;2023-12-20T01:28:38;102002.25;;;8.26;100.00
42591;BME280;28218;53.342;-6.216;2023-12-20T01:31:08;102003.69;;;8.30;100.00
42591;BME280;28218;53.342;-6.216;2023-12-20T01:34:00;102021.94;;;8.32;100.00
42591;BME280;28218;53.342;-6.216;2023-12-20T01:36:29;102013.47;;;8.28;100.00
42591;BME280;28218;53.342;-6.216;2023-12-20T01:39:01;102016.94;;;8.29;100.00
42591;BME280;28218;53.342;-6.216;2023-12-20T01:41:40;102019.22;;;8.33;100.00
42591;BME280;28218;53.342;-6.216;2023-12-20T01:44:12;102011.00;;;8.38;100.00
42591;BME280;28218;53.342;-6.216;2023-12-20T01:46:42;102001.06;;;8.41;100.00
42591;BME280;28218;53.342;-6.216;2023-12-20T01:49:14;101993.19;;;8.41;100.00
42591;BME280;28218;53.342;-6.216;2023-12-20T01:51:49;102007.50;;;8.49;100.00
42591;BME280;28218;53.342;-6.216;2023-12-20T01:54:19;102004.63;;;8.52;100.00
42591;BME280;28218;53.342;-6.216;2023-12-20T01:56:50;102004.28;;;8.56;100.00
42591;BME280;28218;53.342;-6.216;2023-12-20T01:59:25;102004.00;;;8.59;100.00
42591;BME280;28218;53.342;-6.216;2023-12-20T02:02:05;102007.91;;;8.65;100.00
42591;BME280;28218;53.342;-6.216;2023-12-20T02:04:45;102006.03;;;8.67;100.00
42591;BME280;28218;53.342;-6.216;2023-12-20T02:07:14;102001.34;;;8.70;100.00
42591;BME280;28218;53.342;-6.216;2023-12-20T02:10:08;102000.13;;;8.75;100.00
42591;BME280;28218;53.342;-6.216;2023-12-20T02:12:52;101987.25;;;8.72;100.00
42591;BME280;28218;53.342;-6.216;2023-12-20T02:15:34;101997.13;;;8.79;100.00
42591;BME280;28218;53.342;-6.216;2023-12-20T02:18:37;101990.94;;;8.80;100.00
42591;BME280;28218;53.342;-6.216;2023-12-20T02:21:34;101981.25;;;8.81;100.00
42591;BME280;28218;53.342;-6.216;2023-12-20T02:24:39;101979.31;;;8.83;100.00
42591;BME280;28218;53.342;-6.216;2023-12-20T02:27:09;101982.66;;;8.85;100.00
42591;BME280;28218;53.342;-6.216;2023-12-20T02:29:50;101977.97;;;8.88;100.00
42591;BME280;28218;53.342;-6.216;2023-12-20T02:32:21;101987.16;;;8.94;100.00
42591;BME280;28218;53.342;-6.216;2023-12-20T02:35:07;101990.50;;;8.96;100.00
42591;BME280;28218;53.342;-6.216;2023-12-20T02:38:11;101995.38;;;9.01;100.00
42591;BME280;28218;53.342;-6.216;2023-12-20T02:40:44;101999.66;;;9.02;100.00
42591;BME280;28218;53.342;-6.216;2023-12-20T02:43:15;101998.69;;;9.03;100.00
42591;BME280;28218;53.342;-6.216;2023-12-20T02:45:44;101986.38;;;9.03;100.00
42591;BME280;28218;53.342;-6.216;2023-12-20T02:48:13;101980.28;;;9.03;100.00
42591;BME280;28218;53.342;-6.216;2023-12-20T02:50:47;101987.94;;;9.06;100.00
42591;BME280;28218;53.342;-6.216;2023-12-20T02:53:22;101992.50;;;9.04;100.00
42591;BME280;28218;53.342;-6.216;2023-12-20T02:55:53;101988.31;;;9.01;100.00
42591;BME280;28218;53.342;-6.216;2023-12-20T02:58:22;102005.88;;;9.01;100.00
42591;BME280;28218;53.342;-6.216;2023-12-20T03:00:51;102005.88;;;9.01;100.00
42591;BME280;28218;53.342;-6.216;2023-12-20T03:03:55;101996.91;;;9.03;100.00
42591;BME280;28218;53.342;-6.216;2023-12-20T03:06:27;102004.53;;;9.06;100.00
42591;BME280;28218;53.342;-6.216;2023-12-20T03:08:56;101995.81;;;9.06;100.00
42591;BME280;28218;53.342;-6.216;2023-12-20T03:11:32;101999.16;;;9.08;100.00
42591;BME280;28218;53.342;-6.216;2023-12-20T03:14:08;102006.09;;;9.09;100.00
42591;BME280;28218;53.342;-6.216;2023-12-20T03:16:46;102009.41;;;9.11;100.00
42591;BME280;28218;53.342;-6.216;2023-12-20T03:19:17;101999.72;;;9.11;100.00
42591;BME280;28218;53.342;-6.216;2023-12-20T03:21:47;101992.56;;;9.13;100.00
42591;BME280;28218;53.342;-6.216;2023-12-20T03:27:21;101979.97;;;9.17;100.00
42591;BME280;28218;53.342;-6.216;2023-12-20T03:29:50;101993.84;;;9.19;100.00
42591;BME280;28218;53.342;-6.216;2023-12-20T03:32:25;101986.53;;;9.23;100.00
42591;BME280;28218;53.342;-6.216;2023-12-20T03:34:54;101968.13;;;9.23;100.00
42591;BME280;28218;53.342;-6.216;2023-12-20T03:37:22;101958.88;;;9.28;100.00
42591;BME280;28218;53.342;-6.216;2023-12-20T03:39:52;101951.97;;;9.27;100.00
42591;BME280;28218;53.342;-6.216;2023-12-20T03:42:23;101963.03;;;9.31;100.00
42591;BME280;28218;53.342;-6.216;2023-12-20T03:44:52;101944.53;;;9.32;100.00
42591;BME280;28218;53.342;-6.216;2023-12-20T03:47:23;101947.84;;;9.34;100.00
42591;BME280;28218;53.342;-6.216;2023-12-20T03:49:56;101943.41;;;9.35;100.00
42591;BME280;28218;53.342;-6.216;2023-12-20T03:52:30;101954.75;;;9.35;100.00
42591;BME280;28218;53.342;-6.216;2023-12-20T03:55:04;101957.41;;;9.35;100.00
42591;BME280;28218;53.342;-6.216;2023-12-20T03:57:39;101959.91;;;9.37;100.00
42591;BME280;28218;53.342;-6.216;2023-12-20T04:00:17;101958.81;;;9.39;100.00
42591;BME280;28218;53.342;-6.216;2023-12-20T04:02:49;101950.34;;;9.36;100.00
42591;BME280;28218;53.342;-6.216;2023-12-20T04:05:18;101942.19;;;9.39;100.00
42591;BME280;28218;53.342;-6.216;2023-12-20T04:08:04;101953.41;;;9.41;100.00
42591;BME280;28218;53.342;-6.216;2023-12-20T04:10:53;101948.16;;;9.41;100.00
42591;BME280;28218;53.342;-6.216;2023-12-20T04:13:22;101952.56;;;9.40;100.00
42591;BME280;28218;53.342;-6.216;2023-12-20T04:15:56;101966.31;;;9.44;100.00
42591;BME280;28218;53.342;-6.216;2023-12-20T04:18:25;101967.13;;;9.44;100.00
42591;BME280;28218;53.342;-6.216;2023-12-20T04:21:20;101975.84;;;9.45;100.00
42591;BME280;28218;53.342;-6.216;2023-12-20T04:24:13;101980.03;;;9.47;100.00
42591;BME280;28218;53.342;-6.216;2023-12-20T04:26:46;101979.06;;;9.48;100.00
42591;BME280;28218;53.342;-6.216;2023-12-20T04:29:14;101983.50;;;9.48;100.00
42591;BME280;28218;53.342;-6.216;2023-12-20T04:31:43;101971.19;;;9.48;100.00
42591;BME280;28218;53.342;-6.216;2023-12-20T04:34:11;101973.66;;;9.50;100.00
42591;BME280;28218;53.342;-6.216;2023-12-20T04:36:40;101961.38;;;9.51;100.00
42591;BME280;28218;53.342;-6.216;2023-12-20T04:39:18;101945.69;;;9.49;100.00
42591;BME280;28218;53.342;-6.216;2023-12-20T04:41:51;101936.00;;;9.50;100.00
42591;BME280;28218;53.342;-6.216;2023-12-20T04:44:20;101923.81;;;9.48;100.00
42591;BME280;28218;53.342;-6.216;2023-12-20T04:47:07;101936.00;;;9.50;100.00
42591;BME280;28218;53.342;-6.216;2023-12-20T04:49:41;101941.28;;;9.50;100.00
42591;BME280;28218;53.342;-6.216;2023-12-20T04:52:36;101939.94;;;9.55;100.00
42591;BME280;28218;53.342;-6.216;2023-12-20T04:55:07;101942.00;;;9.52;100.00
42591;BME280;28218;53.342;-6.216;2023-12-20T04:57:37;101941.16;;;9.51;100.00
42591;BME280;28218;53.342;-6.216;2023-12-20T05:00:06;101935.75;;;9.53;100.00
42591;BME280;28218;53.342;-6.216;2023-12-20T05:02:41;101956.81;;;9.53;100.00
42591;BME280;28218;53.342;-6.216;2023-12-20T05:05:12;101937.41;;;9.54;100.00
42591;BME280;28218;53.342;-6.216;2023-12-20T05:07:42;101934.69;;;9.55;100.00
42591;BME280;28218;53.342;-6.216;2023-12-20T05:10:11;101937.16;;;9.57;100.00
42591;BME280;28218;53.342;-6.216;2023-12-20T05:12:49;101951.28;;;9.56;100.00
42591;BME280;28218;53.342;-6.216;2023-12-20T05:15:18;101949.59;;;9.55;100.00
42591;BME280;28218;53.342;-6.216;2023-12-20T05:18:02;101937.56;;;9.52;100.00
42591;BME280;28218;53.342;-6.216;2023-12-20T05:20:43;101931.72;;;9.48;100.00
42591;BME280;28218;53.342;-6.216;2023-12-20T05:23:15;101931.84;;;9.47;100.00
42591;BME280;28218;53.342;-6.216;2023-12-20T05:25:44;101920.75;;;9.43;100.00
42591;BME280;28218;53.342;-6.216;2023-12-20T05:28:26;101918.25;;;9.42;100.00
42591;BME280;28218;53.342;-6.216;2023-12-20T05:30:54;101928.91;;;9.40;100.00
42591;BME280;28218;53.342;-6.216;2023-12-20T05:33:29;101918.66;;;9.37;100.00
42591;BME280;28218;53.342;-6.216;2023-12-20T05:35:57;101929.81;;;9.30;100.00
42591;BME280;28218;53.342;-6.216;2023-12-20T05:38:34;101920.41;;;9.27;100.00
42591;BME280;28218;53.342;-6.216;2023-12-20T05:41:08;101913.47;;;9.26;100.00
42591;BME280;28218;53.342;-6.216;2023-12-20T05:43:41;101921.50;;;9.25;100.00
42591;BME280;28218;53.342;-6.216;2023-12-20T05:46:20;101912.53;;;9.27;100.00
42591;BME280;28218;53.342;-6.216;2023-12-20T05:48:59;101918.47;;;9.29;100.00
42591;BME280;28218;53.342;-6.216;2023-12-20T05:51:39;101917.25;;;9.33;100.00
42591;BME280;28218;53.342;-6.216;2023-12-20T05:54:31;101895.22;;;9.34;100.00
42591;BME280;28218;53.342;-6.216;2023-12-20T05:57:03;101902.03;;;9.37;100.00
42591;BME280;28218;53.342;-6.216;2023-12-20T05:59:33;101888.34;;;9.43;100.00
42591;BME280;28218;53.342;-6.216;2023-12-20T06:02:19;101894.19;;;9.46;100.00
42591;BME280;28218;53.342;-6.216;2023-12-20T06:04:47;101861.78;;;9.46;100.00
42591;BME280;28218;53.342;-6.216;2023-12-20T06:07:16;101848.50;;;9.47;100.00
42591;BME280;28218;53.342;-6.216;2023-12-20T06:09:48;101860.00;;;9.46;100.00
42591;BME280;28218;53.342;-6.216;2023-12-20T06:12:26;101864.13;;;9.49;100.00
42591;BME280;28218;53.342;-6.216;2023-12-20T06:14:57;101869.16;;;9.52;100.00
42591;BME280;28218;53.342;-6.216;2023-12-20T06:18:04;101862.09;;;9.53;100.00
42591;BME280;28218;53.342;-6.216;2023-12-20T06:20:35;101872.47;;;9.54;100.00
42591;BME280;28218;53.342;-6.216;2023-12-20T06:23:15;101863.50;;;9.57;100.00
42591;BME280;28218;53.342;-6.216;2023-12-20T06:25:44;101865.16;;;9.58;100.00
42591;BME280;28218;53.342;-6.216;2023-12-20T06:28:19;101862.38;;;9.59;100.00
42591;BME280;28218;53.342;-6.216;2023-12-20T06:30:55;101861.28;;;9.62;100.00
42591;BME280;28218;53.342;-6.216;2023-12-20T06:33:24;101849.94;;;9.61;100.00
42591;BME280;28218;53.342;-6.216;2023-12-20T06:35:58;101847.97;;;9.63;100.00
42591;BME280;28218;53.342;-6.216;2023-12-20T06:38:30;101860.16;;;9.64;100.00
42591;BME280;28218;53.342;-6.216;2023-12-20T06:41:13;101849.94;;;9.61;100.00
42591;BME280;28218;53.342;-6.216;2023-12-20T06:43:42;101859.88;;;9.58;100.00
42591;BME280;28218;53.342;-6.216;2023-12-20T06:46:17;101872.78;;;9.61;100.00
42591;BME280;28218;53.342;-6.216;2023-12-20T06:48:48;101876.38;;;9.60;100.00
42591;BME280;28218;53.342;-6.216;2023-12-20T06:51:20;101879.72;;;9.62;100.00
42591;BME280;28218;53.342;-6.216;2023-12-20T06:53:55;101877.06;;;9.62;100.00
42591;BME280;28218;53.342;-6.216;2023-12-20T06:56:26;101887.34;;;9.65;100.00
42591;BME280;28218;53.342;-6.216;2023-12-20T06:58:55;101899.53;;;9.66;100.00
42591;BME280;28218;53.342;-6.216;2023-12-20T07:01:27;101895.09;;;9.66;100.00
42591;BME280;28218;53.342;-6.216;2023-12-20T07:03:56;101876.28;;;9.71;100.00
42591;BME280;28218;53.342;-6.216;2023-12-20T07:06:25;101878.91;;;9.71;100.00
42591;BME280;28218;53.342;-6.216;2023-12-20T07:08:54;101852.72;;;9.69;100.00
42591;BME280;28218;53.342;-6.216;2023-12-20T07:11:22;101861.16;;;9.73;100.00
42591;BME280;28218;53.342;-6.216;2023-12-20T07:13:51;101859.94;;;9.77;100.00
42591;BME280;28218;53.342;-6.216;2023-12-20T07:16:21;101872.41;;;9.75;100.00
42591;BME280;28218;53.342;-6.216;2023-12-20T07:18:51;101876.00;;;9.74;100.00
42591;BME280;28218;53.342;-6.216;2023-12-20T07:21:20;101880.00;;;9.78;100.00
42591;BME280;28218;53.342;-6.216;2023-12-20T07:23:48;101873.09;;;9.77;100.00
42591;BME280;28218;53.342;-6.216;2023-12-20T07:26:17;101883.63;;;9.77;100.00
42591;BME280;28218;53.342;-6.216;2023-12-20T07:28:45;101866.84;;;9.78;100.00
42591;BME280;28218;53.342;-6.216;2023-12-20T07:31:18;101853.00;;;9.76;100.00
42591;BME280;28218;53.342;-6.216;2023-12-20T07:33:52;101854.25;;;9.72;100.00
42591;BME280;28218;53.342;-6.216;2023-12-20T07:36:21;101858.00;;;9.69;100.00
42591;BME280;28218;53.342;-6.216;2023-12-20T07:38:50;101865.03;;;9.69;100.00
42591;BME280;28218;53.342;-6.216;2023-12-20T07:41:18;101850.22;;;9.68;100.00
42591;BME280;28218;53.342;-6.216;2023-12-20T07:43:48;101835.25;;;9.68;100.00
42591;BME280;28218;53.342;-6.216;2023-12-20T07:46:16;101831.38;;;9.63;100.00
42591;BME280;28218;53.342;-6.216;2023-12-20T07:48:46;101827.25;;;9.70;100.00
42591;BME280;28218;53.342;-6.216;2023-12-20T07:51:16;101818.50;;;9.69;100.00
42591;BME280;28218;53.342;-6.216;2023-12-20T07:53:44;101807.00;;;9.70;100.00
42591;BME280;28218;53.342;-6.216;2023-12-20T07:56:18;101805.47;;;9.68;100.00
42591;BME280;28218;53.342;-6.216;2023-12-20T07:59:09;101785.13;;;9.70;100.00
42591;BME280;28218;53.342;-6.216;2023-12-20T08:01:57;101789.69;;;9.68;100.00
42591;BME280;28218;53.342;-6.216;2023-12-20T08:04:26;101778.91;;;9.71;100.00
42591;BME280;28218;53.342;-6.216;2023-12-20T08:06:56;101763.78;;;9.73;100.00
42591;BME280;28218;53.342;-6.216;2023-12-20T08:09:27;101759.91;;;9.77;100.00
42591;BME280;28218;53.342;-6.216;2023-12-20T08:11:55;101776.53;;;9.78;100.00
42591;BME280;28218;53.342;-6.216;2023-12-20T08:14:26;101790.25;;;9.81;100.00
42591;BME280;28218;53.342;-6.216;2023-12-20T08:16:54;101770.03;;;9.82;100.00
42591;BME280;28218;53.342;-6.216;2023-12-20T08:19:25;101769.88;;;9.83;100.00
42591;BME280;28218;53.342;-6.216;2023-12-20T08:21:55;101762.97;;;9.82;100.00
42591;BME280;28218;53.342;-6.216;2023-12-20T08:24:27;101761.56;;;9.88;100.00
42591;BME280;28218;53.342;-6.216;2023-12-20T08:27:20;101739.69;;;9.87;100.00
42591;BME280;28218;53.342;-6.216;2023-12-20T08:29:48;101761.47;;;9.89;100.00
42591;BME280;28218;53.342;-6.216;2023-12-20T08:32:18;101732.19;;;9.92;100.00
42591;BME280;28218;53.342;-6.216;2023-12-20T08:34:46;101735.69;;;9.93;100.00
42591;BME280;28218;53.342;-6.216;2023-12-20T08:37:21;101733.31;;;9.90;100.00
42591;BME280;28218;53.342;-6.216;2023-12-20T08:39:49;101745.81;;;9.97;100.00
42591;BME280;28218;53.342;-6.216;2023-12-20T08:42:20;101753.41;;;10.01;100.00
42591;BME280;28218;53.342;-6.216;2023-12-20T08:44:51;101751.34;;;10.04;100.00
42591;BME280;28218;53.342;-6.216;2023-12-20T08:47:26;101737.75;;;10.09;100.00
42591;BME280;28218;53.342;-6.216;2023-12-20T08:50:10;101728.88;;;10.10;100.00
42591;BME280;28218;53.342;-6.216;2023-12-20T08:52:40;101732.22;;;10.12;100.00
42591;BME280;28218;53.342;-6.216;2023-12-20T08:55:11;101724.59;;;10.09;100.00
42591;BME280;28218;53.342;-6.216;2023-12-20T08:57:42;101728.88;;;10.10;100.00
42591;BME280;28218;53.342;-6.216;2023-12-20T09:00:15;101737.19;;;10.15;100.00
42591;BME280;28218;53.342;-6.216;2023-12-20T09:02:49;101737.06;;;10.16;100.00
42591;BME280;28218;53.342;-6.216;2023-12-20T09:05:18;101724.56;;;10.18;100.00
42591;BME280;28218;53.342;-6.216;2023-12-20T09:07:51;101718.47;;;10.18;100.00
42591;BME280;28218;53.342;-6.216;2023-12-20T09:10:26;101711.41;;;10.18;100.00
42591;BME280;28218;53.342;-6.216;2023-12-20T09:12:54;101708.63;;;10.20;100.00
42591;BME280;28218;53.342;-6.216;2023-12-20T09:15:24;101689.22;;;10.21;100.00
42591;BME280;28218;53.342;-6.216;2023-12-20T09:18:08;101698.22;;;10.18;100.00
42591;BME280;28218;53.342;-6.216;2023-12-20T09:20:46;101699.06;;;10.19;100.00
42591;BME280;28218;53.342;-6.216;2023-12-20T09:23:29;101684.91;;;10.20;100.00
42591;BME280;28218;53.342;-6.216;2023-12-20T09:25:57;101672.44;;;10.22;100.00
42591;BME280;28218;53.342;-6.216;2023-12-20T09:28:25;101675.91;;;10.22;100.00
42591;BME280;28218;53.342;-6.216;2023-12-20T09:30:57;101683.69;;;10.24;100.00
42591;BME280;28218;53.342;-6.216;2023-12-20T09:33:29;101681.47;;;10.29;100.00
42591;BME280;28218;53.342;-6.216;2023-12-20T09:36:06;101670.91;;;10.29;100.00
42591;BME280;28218;53.342;-6.216;2023-12-20T09:38:40;101655.81;;;10.31;100.00
42591;BME280;28218;53.342;-6.216;2023-12-20T09:41:16;101658.84;;;10.36;100.00
42591;BME280;28218;53.342;-6.216;2023-12-20T09:43:44;101658.69;;;10.38;100.00
42591;BME280;28218;53.342;-6.216;2023-12-20T09:46:15;101635.69;;;10.40;100.00
42591;BME280;28218;53.342;-6.216;2023-12-20T09:48:47;101620.72;;;10.40;100.00
42591;BME280;28218;53.342;-6.216;2023-12-20T09:51:16;101623.03;;;10.43;100.00
42591;BME280;28218;53.342;-6.216;2023-12-20T09:53:47;101614.31;;;10.43;100.00
42591;BME280;28218;53.342;-6.216;2023-12-20T09:56:16;101614.03;;;10.46;100.00
42591;BME280;28218;53.342;-6.216;2023-12-20T09:58:44;101612.88;;;10.48;100.00
42591;BME280;28218;53.342;-6.216;2023-12-20T10:01:14;101614.25;;;10.53;100.00
42591;BME280;28218;53.342;-6.216;2023-12-20T10:03:43;101619.53;;;10.53;100.00
42591;BME280;28218;53.342;-6.216;2023-12-20T10:06:11;101604.69;;;10.52;100.00
42591;BME280;28218;53.342;-6.216;2023-12-20T10:08:40;101601.78;;;10.55;100.00
42591;BME280;28218;53.342;-6.216;2023-12-20T10:11:20;101580.00;;;10.53;100.00
42591;BME280;28218;53.342;-6.216;2023-12-20T10:13:48;101591.81;;;10.48;100.00
42591;BME280;28218;53.342;-6.216;2023-12-20T10:16:17;101602.72;;;10.54;100.00
42591;BME280;28218;53.342;-6.216;2023-12-20T10:18:49;101596.50;;;10.55;100.00
42591;BME280;28218;53.342;-6.216;2023-12-20T10:21:18;101599.28;;;10.53;100.00
42591;BME280;28218;53.342;-6.216;2023-12-20T10:23:47;101603.44;;;10.56;100.00
42591;BME280;28218;53.342;-6.216;2023-12-20T10:26:22;101626.44;;;10.54;100.00
42591;BME280;28218;53.342;-6.216;2023-12-20T10:28:55;101621.88;;;10.56;100.00
42591;BME280;28218;53.342;-6.216;2023-12-20T10:32:00;101621.88;;;10.56;100.00
42591;BME280;28218;53.342;-6.216;2023-12-20T10:34:32;101627.31;;;10.54;100.00
42591;BME280;28218;53.342;-6.216;2023-12-20T10:37:12;101613.00;;;10.57;100.00
42591;BME280;28218;53.342;-6.216;2023-12-20T10:39:44;101614.97;;;10.55;100.00
42591;BME280;28218;53.342;-6.216;2023-12-20T10:42:18;101628.97;;;10.55;100.00
42591;BME280;28218;53.342;-6.216;2023-12-20T10:44:49;101637.53;;;10.57;100.00
42591;BME280;28218;53.342;-6.216;2023-12-20T10:47:17;101633.91;;;10.58;100.00
42591;BME280;28218;53.342;-6.216;2023-12-20T10:50:10;101636.44;;;10.60;100.00
42591;BME280;28218;53.342;-6.216;2023-12-20T10:53:04;101630.47;;;10.58;100.00
42591;BME280;28218;53.342;-6.216;2023-12-20T10:56:02;101629.19;;;10.62;100.00
42591;BME280;28218;53.342;-6.216;2023-12-20T10:58:45;101623.09;;;10.61;100.00
42591;BME280;28218;53.342;-6.216;2023-12-20T11:01:16;101625.56;;;10.63;100.00
42591;BME280;28218;53.342;-6.216;2023-12-20T11:03:52;101623.94;;;10.62;100.00
42591;BME280;28218;53.342;-6.216;2023-12-20T11:06:35;101633.47;;;10.63;100.00
42591;BME280;28218;53.342;-6.216;2023-12-20T11:09:12;101637.09;;;10.62;100.00
42591;BME280;28218;53.342;-6.216;2023-12-20T11:12:03;101622.56;;;10.58;100.00
42591;BME280;28218;53.342;-6.216;2023-12-20T11:14:48;101637.53;;;10.57;100.00
42591;BME280;28218;53.342;-6.216;2023-12-20T11:17:17;101617.59;;;10.55;100.00
42591;BME280;28218;53.342;-6.216;2023-12-20T11:20:14;101625.50;;;10.55;100.00
42591;BME280;28218;53.342;-6.216;2023-12-20T11:22:52;101609.00;;;10.53;100.00
42591;BME280;28218;53.342;-6.216;2023-12-20T11:25:22;101611.34;;;10.56;100.00
42591;BME280;28218;53.342;-6.216;2023-12-20T11:28:07;101598.16;;;10.56;100.00
42591;BME280;28218;53.342;-6.216;2023-12-20T11:30:47;101592.19;;;10.54;100.00
42591;BME280;28218;53.342;-6.216;2023-12-20T11:33:23;101585.00;;;10.56;100.00
42591;BME280;28218;53.342;-6.216;2023-12-20T11:35:59;101589.97;;;10.59;100.00
42591;BME280;28218;53.342;-6.216;2023-12-20T11:39:06;101590.94;;;10.58;100.00
42591;BME280;28218;53.342;-6.216;2023-12-20T11:41:33;101570.66;;;10.58;100.00
42591;BME280;28218;53.342;-6.216;2023-12-20T11:44:01;101561.66;;;10.61;100.00
42591;BME280;28218;53.342;-6.216;2023-12-20T11:46:31;101551.13;;;10.61;100.00
42591;BME280;28218;53.342;-6.216;2023-12-20T11:49:00;101561.00;;;10.59;100.00
42591;BME280;28218;53.342;-6.216;2023-12-20T11:51:29;101543.88;;;10.63;100.00
42591;BME280;28218;53.342;-6.216;2023-12-20T11:54:01;101553.03;;;10.68;100.00
42591;BME280;28218;53.342;-6.216;2023-12-20T11:56:44;101539.31;;;10.65;100.00
42591;BME280;28218;53.342;-6.216;2023-12-20T11:59:15;101532.75;;;10.69;100.00
42591;BME280;28218;53.342;-6.216;2023-12-20T12:01:51;101519.59;;;10.69;100.00
42591;BME280;28218;53.342;-6.216;2023-12-20T12:04:19;101526.34;;;10.71;100.00
42591;BME280;28218;53.342;-6.216;2023-12-20T12:06:48;101523.41;;;10.74;100.00
42591;BME280;28218;53.342;-6.216;2023-12-20T12:09:16;101529.34;;;10.77;100.00
42591;BME280;28218;53.342;-6.216;2023-12-20T12:11:45;101520.50;;;10.78;100.00
42591;BME280;28218;53.342;-6.216;2023-12-20T12:14:14;101502.03;;;10.78;100.00
42591;BME280;28218;53.342;-6.216;2023-12-20T12:16:43;101506.16;;;10.80;100.00
42591;BME280;28218;53.342;-6.216;2023-12-20T12:19:22;101525.59;;;10.79;100.00
42591;BME280;28218;53.342;-6.216;2023-12-20T12:22:04;101510.47;;;10.81;100.00
42591;BME280;28218;53.342;-6.216;2023-12-20T12:24:34;101506.00;;;10.82;100.00
42591;BME280;28218;53.342;-6.216;2023-12-20T12:27:06;101509.25;;;10.75;100.00
42591;BME280;28218;53.342;-6.216;2023-12-20T12:29:35;101510.91;;;10.77;100.00
42591;BME280;28218;53.342;-6.216;2023-12-20T12:32:06;101526.06;;;10.74;100.00
42591;BME280;28218;53.342;-6.216;2023-12-20T12:34:36;101518.16;;;10.74;100.00
42591;BME280;28218;53.342;-6.216;2023-12-20T12:37:04;101521.22;;;10.70;100.00
42591;BME280;28218;53.342;-6.216;2023-12-20T12:39:34;101524.84;;;10.69;100.00
42591;BME280;28218;53.342;-6.216;2023-12-20T12:42:02;101506.97;;;10.63;100.00
42591;BME280;28218;53.342;-6.216;2023-12-20T12:44:32;101503.59;;;10.70;100.00
42591;BME280;28218;53.342;-6.216;2023-12-20T12:47:00;101472.81;;;10.71;100.00
42591;BME280;28218;53.342;-6.216;2023-12-20T12:49:30;101453.00;;;10.67;100.00
42591;BME280;28218;53.342;-6.216;2023-12-20T12:52:00;101468.81;;;10.67;100.00
42591;BME280;28218;53.342;-6.216;2023-12-20T12:54:29;101480.50;;;10.64;100.00
42591;BME280;28218;53.342;-6.216;2023-12-20T12:56:58;101445.09;;;10.67;100.00
42591;BME280;28218;53.342;-6.216;2023-12-20T12:59:26;101451.88;;;10.69;100.00
42591;BME280;28218;53.342;-6.216;2023-12-20T13:01:53;101434.91;;;10.72;100.00
42591;BME280;28218;53.342;-6.216;2023-12-20T13:04:22;101413.69;;;10.73;100.00
42591;BME280;28218;53.342;-6.216;2023-12-20T13:06:50;101411.56;;;10.77;100.00
42591;BME280;28218;53.342;-6.216;2023-12-20T13:09:20;101410.28;;;10.81;100.00
42591;BME280;28218;53.342;-6.216;2023-12-20T13:11:48;101399.72;;;10.81;100.00
42591;BME280;28218;53.342;-6.216;2023-12-20T13:14:16;101398.44;;;10.85;100.00
42591;BME280;28218;53.342;-6.216;2023-12-20T13:16:48;101402.44;;;10.89;100.00
42591;BME280;28218;53.342;-6.216;2023-12-20T13:19:17;101370.81;;;10.89;100.00
42591;BME280;28218;53.342;-6.216;2023-12-20T13:21:46;101369.28;;;10.87;100.00
42591;BME280;28218;53.342;-6.216;2023-12-20T13:24:15;101363.88;;;10.88;100.00
42591;BME280;28218;53.342;-6.216;2023-12-20T13:26:45;101361.59;;;10.93;100.00
42591;BME280;28218;53.342;-6.216;2023-12-20T13:29:14;101359.78;;;10.94;100.00
42591;BME280;28218;53.342;-6.216;2023-12-20T13:31:42;101374.50;;;10.96;100.00